Orbital elements of FREGAT DEB
| Launched | 17 July 2011 |
| Flight ended | – |
| Launch site | Tyuratam Missile and Space Center, Kazakhstan (Also known as Baikonur Cosmodrome) |
| Owner | Commonwealth of Independent States (former USSR) |
| NORAD ID | 45889 |
| Date fetched |
Epoch osculation |
Inc. [°] |
Ecc. | RA asc node [hr] |
Arg Peri. [°] |
Mean anom [°] |
Mean motion [rev/day] |
Abs. mag |
| Date fetched |
Epoch osculation |
Inc. [°] |
Ecc. | RA asc node [hr] |
Arg Peri. [°] |
Mean anom [°] |
Mean motion [rev/day] |
Abs. mag |
| 2026 May 08 17:57 | 2026 May 05 01:40:42 | 51.3100 | 0.04915 | 9.3830 | 182.8024 | 177.0138 | 14.42616 | – |
| 2026 May 07 17:58 | 2026 May 05 01:40:42 | 51.3100 | 0.04915 | 9.3830 | 182.8024 | 177.0138 | 14.42616 | – |
| 2026 May 06 17:57 | 2026 May 05 01:40:42 | 51.3100 | 0.04915 | 9.3830 | 182.8024 | 177.0138 | 14.42616 | – |
| 2026 May 05 17:57 | 2026 May 05 01:40:42 | 51.3100 | 0.04915 | 9.3830 | 182.8024 | 177.0138 | 14.42616 | – |
| 2026 May 04 17:57 | 2026 Apr 30 11:54:03 | 51.3104 | 0.04978 | 10.6750 | 168.0215 | 177.0138 | 14.42616 | – |
| 2026 May 03 17:57 | 2026 Apr 30 11:54:03 | 51.3104 | 0.04978 | 10.6750 | 168.0215 | 177.0138 | 14.42616 | – |
| 2026 May 02 17:57 | 2026 Apr 30 11:54:03 | 51.3104 | 0.04978 | 10.6750 | 168.0215 | 177.0138 | 14.42616 | – |
| 2026 May 01 17:56 | 2026 Apr 30 11:54:03 | 51.3104 | 0.04978 | 10.6750 | 168.0215 | 177.0138 | 14.42616 | – |
| 2026 Apr 30 17:56 | 2026 Apr 30 11:54:03 | 51.3104 | 0.04978 | 10.6750 | 168.0215 | 177.0138 | 14.42616 | – |
| 2026 Apr 29 17:57 | 2026 Apr 23 11:40:26 | 51.3106 | 0.05088 | 12.6488 | 145.4527 | 177.0138 | 14.42616 | – |
| 2026 Apr 28 17:56 | 2026 Apr 23 11:40:26 | 51.3106 | 0.05088 | 12.6488 | 145.4527 | 177.0138 | 14.42616 | – |
| 2026 Apr 27 17:58 | 2026 Apr 23 11:40:26 | 51.3106 | 0.05088 | 12.6488 | 145.4527 | 177.0138 | 14.42616 | – |
| 2026 Apr 26 17:58 | 2026 Apr 23 11:40:26 | 51.3106 | 0.05088 | 12.6488 | 145.4527 | 177.0138 | 14.42616 | – |
| 2026 Apr 25 17:58 | 2026 Apr 23 11:40:26 | 51.3106 | 0.05088 | 12.6488 | 145.4527 | 177.0138 | 14.42616 | – |
| 2026 Apr 24 17:59 | 2026 Apr 23 11:40:26 | 51.3106 | 0.05088 | 12.6488 | 145.4527 | 177.0138 | 14.42616 | – |
| 2026 Apr 23 17:57 | 2026 Apr 19 12:36:13 | 51.3117 | 0.05146 | 13.7609 | 132.7223 | 177.0138 | 14.42616 | – |
| 2026 Apr 22 17:57 | 2026 Apr 19 12:36:13 | 51.3117 | 0.05146 | 13.7609 | 132.7223 | 177.0138 | 14.42616 | – |
| 2026 Apr 21 17:57 | 2026 Apr 19 12:36:13 | 51.3117 | 0.05146 | 13.7609 | 132.7223 | 177.0138 | 14.42616 | – |
| 2026 Apr 20 17:57 | 2026 Apr 19 12:36:13 | 51.3117 | 0.05146 | 13.7609 | 132.7223 | 177.0138 | 14.42616 | – |
| 2026 Apr 19 17:58 | 2026 Apr 19 12:36:13 | 51.3117 | 0.05146 | 13.7609 | 132.7223 | 177.0138 | 14.42616 | – |
| 2026 Apr 18 17:56 | 2026 Apr 12 18:37:32 | 51.3115 | 0.05231 | 15.6508 | 111.1255 | 177.0138 | 14.42616 | – |
| 2026 Apr 16 17:57 | 2026 Apr 12 18:37:32 | 51.3115 | 0.05231 | 15.6508 | 111.1255 | 177.0138 | 14.42616 | – |
| 2026 Apr 14 17:57 | 2026 Apr 12 18:37:32 | 51.3115 | 0.05231 | 15.6508 | 111.1255 | 177.0138 | 14.42616 | – |
| 2026 Apr 13 17:57 | 2026 Apr 12 18:37:32 | 51.3115 | 0.05231 | 15.6508 | 111.1255 | 177.0138 | 14.42616 | – |
| 2026 Apr 12 17:57 | 2026 Apr 08 14:19:05 | 51.3133 | 0.05298 | 16.8183 | 97.8051 | 177.0138 | 14.42616 | – |
| 2026 Apr 11 17:57 | 2026 Apr 08 14:19:05 | 51.3133 | 0.05298 | 16.8183 | 97.8051 | 177.0138 | 14.42616 | – |